| time (UTC) | temp F | wind direction | speed MPH | gust MPH | rain 1hr in | rain 24hr in | rain mn in | humidity % | barometer mb |
| 20260506004546 | 78 | 355 | 4.0 | 16.0 | 0.00 | 0.00 | 0.00 | 26 | 1003.2 |
| 20260506003045 | 78 | 14 | 7.0 | 15.0 | 0.00 | 0.00 | 0.00 | 25 | 1003.1 |
| 20260506001550 | 78 | 355 | 7.0 | 15.0 | 0.00 | 0.00 | 0.00 | 24 | 1003.3 |
| 20260506000046 | 78 | 355 | 6.0 | 14.0 | 0.00 | 0.00 | 0.00 | 25 | 1003.2 |
| 20260505234544 | 79 | 293 | 7.0 | 14.0 | 0.00 | 0.00 | 0.00 | 24 | 1003.3 |
| 20260505233043 | 79 | 313 | 6.0 | 17.0 | 0.00 | 0.00 | 0.00 | 25 | 1003.4 |
| 20260505231600 | 79 | 323 | 6.0 | 17.0 | 0.00 | 0.00 | 0.00 | 25 | 1003.4 |
| 20260505230042 | 79 | 282 | 4.0 | 18.0 | 0.00 | 0.00 | 0.00 | 26 | 1003.4 |
| 20260505224542 | 79 | 288 | 6.0 | 12.0 | 0.00 | 0.00 | 0.00 | 26 | 1003.6 |
| 20260505223041 | 80 | 303 | 5.0 | 19.0 | 0.00 | 0.00 | 0.00 | 25 | 1003.6 |
| 20260505221539 | 79 | 327 | 4.0 | 15.0 | 0.00 | 0.00 | 0.00 | 26 | 1003.8 |
| 20260505220038 | 78 | 290 | 4.0 | 10.0 | 0.00 | 0.00 | 0.00 | 28 | 1004.0 |
| 20260505214556 | 78 | 303 | 4.0 | 10.0 | 0.00 | 0.00 | 0.00 | 28 | 1004.3 |
| 20260505213028 | 77 | 15 | 3.0 | 12.0 | 0.00 | 0.00 | 0.00 | 32 | 1004.7 |
| 20260505211527 | 77 | 317 | 5.0 | 10.0 | 0.00 | 0.00 | 0.00 | 31 | 1004.7 |
| 20260505210026 | 77 | 300 | 5.0 | 12.0 | 0.00 | 0.00 | 0.00 | 31 | 1004.9 |
| 20260505204524 | 76 | 259 | 3.0 | 11.0 | 0.00 | 0.00 | 0.00 | 31 | 1004.9 |
| 20260505203022 | 76 | 309 | 3.0 | 9.0 | 0.00 | 0.00 | 0.00 | 35 | 1005.2 |
| 20260505201520 | 75 | 348 | 3.0 | 11.0 | 0.00 | 0.00 | 0.00 | 34 | 1005.3 |
| 20260505200018 | 74 | 288 | 2.0 | 6.0 | 0.00 | 0.00 | 0.00 | 33 | 1005.4 |
| 20260505194518 | 74 | 292 | 3.0 | 10.0 | 0.00 | 0.00 | 0.00 | 31 | 1005.6 |
| 20260505193016 | 74 | 212 | 1.0 | 5.0 | 0.00 | 0.00 | 0.00 | 34 | 1005.7 |
| 20260505191518 | 73 | 278 | 2.0 | 8.0 | 0.00 | 0.00 | 0.00 | 33 | 1005.8 |
| 20260505190022 | 72 | 360 | 0.0 | 6.0 | 0.00 | 0.00 | 0.00 | 33 | 1006.0 |
| 20260505184514 | 72 | 292 | 3.0 | 8.0 | 0.00 | 0.00 | 0.00 | 35 | 1006.1 |
| 20260505183011 | 72 | 271 | 2.0 | 10.0 | 0.00 | 0.00 | 0.00 | 36 | 1006.3 |
| 20260505181511 | 72 | 252 | 2.0 | 8.0 | 0.00 | 0.00 | 0.00 | 35 | 1006.4 |
| 20260505180014 | 72 | 146 | 2.0 | 5.0 | 0.00 | 0.00 | 0.00 | 36 | 1006.5 |
| 20260505174509 | 72 | 157 | 0.0 | 6.0 | 0.00 | 0.00 | 0.00 | 32 | 1006.6 |
| 20260505173006 | 71 | 126 | 0.0 | 6.0 | 0.00 | 0.00 | 0.00 | 34 | 1006.6 |
| 20260505171506 | 70 | 146 | 3.0 | 8.0 | 0.00 | 0.00 | 0.00 | 37 | 1006.5 |
| 20260505170001 | 70 | 209 | 2.0 | 6.0 | 0.00 | 0.00 | 0.00 | 36 | 1006.3 |
| 20260505164605 | 69 | 185 | 2.0 | 7.0 | 0.00 | 0.00 | 0.00 | 37 | 1006.3 |
| 20260505163054 | 68 | 142 | 2.0 | 8.0 | 0.00 | 0.00 | 0.00 | 42 | 1006.2 |
| 20260505161555 | 67 | 182 | 4.0 | 13.0 | 0.00 | 0.00 | 0.00 | 39 | 1006.2 |
| 20260505153044 | 66 | 186 | 5.0 | 11.0 | 0.00 | 0.00 | 0.00 | 44 | 1005.6 |
| 20260505151541 | 64 | 181 | 4.0 | 9.0 | 0.00 | 0.00 | 0.00 | 50 | 1005.7 |
| 20260505124532 | 49 | 126 | 0.0 | 2.0 | 0.00 | 0.00 | 0.00 | 75 | 1003.9 |
| 20260505123028 | 50 | 126 | 0.0 | 3.0 | 0.00 | 0.00 | 0.00 | 75 | 1003.7 |
| 20260505121522 | 49 | 126 | 0.0 | 3.0 | 0.00 | 0.00 | 0.00 | 73 | 1003.1 |
| 20260505120029 | 50 | 126 | 0.0 | 2.0 | 0.00 | 0.00 | 0.00 | 73 | 1002.9 |
| 20260505114511 | 51 | 126 | 0.0 | 2.0 | 0.00 | 0.00 | 0.00 | 70 | 1002.7 |
| 20260505113006 | 52 | 126 | 0.0 | 4.0 | 0.00 | 0.00 | 0.00 | 66 | 1002.6 |
| 20260505111509 | 54 | 286 | 0.0 | 2.0 | 0.00 | 0.00 | 0.00 | 63 | 1002.3 |
| 20260505101553 | 57 | 286 | 0.0 | 3.0 | 0.00 | 0.00 | 0.00 | 56 | 1001.6 |
| 20260505100047 | 57 | 286 | 1.0 | 3.0 | 0.00 | 0.00 | 0.00 | 54 | 1001.3 |
| 20260505094543 | 58 | 281 | 1.0 | 5.0 | 0.00 | 0.00 | 0.00 | 52 | 1001.4 |
| 20260505093044 | 58 | 273 | 1.0 | 7.0 | 0.00 | 0.00 | 0.00 | 52 | 1001.2 |
| 20260505091545 | 59 | 291 | 2.0 | 8.0 | 0.00 | 0.00 | 0.00 | 52 | 1000.9 |
| 20260505090039 | 59 | 281 | 4.0 | 7.0 | 0.00 | 0.00 | 0.00 | 51 | 1000.8 |
| 20260505084533 | 61 | 273 | 1.0 | 4.0 | 0.00 | 0.00 | 0.00 | 48 | 1000.8 |
| 20260505083029 | 61 | 292 | 1.0 | 5.0 | 0.00 | 0.00 | 0.00 | 46 | 1000.8 |
| 20260505081527 | 62 | 267 | 1.0 | 6.0 | 0.00 | 0.00 | 0.00 | 45 | 1000.7 |
| 20260505080024 | 62 | 297 | 3.0 | 7.0 | 0.00 | 0.00 | 0.00 | 44 | 1000.5 |
| 20260505074526 | 63 | 299 | 2.0 | 9.0 | 0.00 | 0.00 | 0.00 | 44 | 1000.5 |
| 20260505073023 | 63 | 298 | 3.0 | 11.0 | 0.00 | 0.00 | 0.00 | 44 | 1000.5 |
| 20260505071530 | 63 | 295 | 3.0 | 8.0 | 0.00 | 0.00 | 0.00 | 44 | 1000.4 |
| 20260505070018 | 63 | 305 | 2.0 | 5.0 | 0.00 | 0.00 | 0.00 | 43 | 1000.4 |
| 20260505064517 | 64 | 286 | 2.0 | 7.0 | 0.00 | 0.00 | 0.00 | 43 | 1000.4 |
| 20260505063017 | 64 | 296 | 2.0 | 8.0 | 0.00 | 0.00 | 0.00 | 42 | 1000.3 |
| 20260505061517 | 64 | 300 | 1.0 | 5.0 | 0.00 | 0.00 | 0.00 | 42 | 1000.2 |
| 20260505060112 | 65 | 311 | 2.0 | 5.0 | 0.00 | 0.00 | 0.00 | 41 | 1000.1 |
| 20260505054513 | 65 | 313 | 0.0 | 3.0 | 0.00 | 0.00 | 0.00 | 41 | 1000.0 |
| 20260505053010 | 65 | 313 | 1.0 | 4.0 | 0.00 | 0.00 | 0.00 | 41 | 999.9 |
| 20260505051517 | 66 | 302 | 1.0 | 5.0 | 0.00 | 0.00 | 0.00 | 41 | 999.9 |
| 20260505041509 | 67 | 298 | 1.0 | 6.0 | 0.00 | 0.00 | 0.00 | 42 | 999.7 |
| 20260505040007 | 68 | 288 | 2.0 | 6.0 | 0.00 | 0.00 | 0.00 | 43 | 999.6 |
| 20260505034507 | 70 | 284 | 2.0 | 7.0 | 0.00 | 0.00 | 0.00 | 38 | 999.4 |
| 20260505033006 | 71 | 308 | 1.0 | 6.0 | 0.00 | 0.00 | 0.00 | 36 | 999.2 |
| 20260505031506 | 73 | 318 | 1.0 | 7.0 | 0.00 | 0.00 | 0.00 | 35 | 999.0 |
| 20260505030007 | 74 | 338 | 2.0 | 8.0 | 0.00 | 0.00 | 0.00 | 33 | 998.8 |
| 20260505024509 | 75 | 306 | 2.0 | 10.0 | 0.00 | 0.00 | 0.00 | 32 | 998.7 |
| 20260505023016 | 76 | 297 | 2.0 | 11.0 | 0.00 | 0.00 | 0.00 | 31 | 998.7 |
| 20260505021506 | 77 | 296 | 4.0 | 11.0 | 0.00 | 0.00 | 0.00 | 29 | 998.6 |
| 20260505020004 | 79 | 292 | 2.0 | 11.0 | 0.00 | 0.00 | 0.00 | 27 | 998.6 |
| 20260505014509 | 80 | 339 | 2.0 | 12.0 | 0.00 | 0.00 | 0.00 | 26 | 998.7 |
| 20260505013001 | 80 | 309 | 3.0 | 13.0 | 0.00 | 0.00 | 0.00 | 26 | 998.8 |
| 20260505011628 | 79 | 292 | 3.0 | 9.0 | 0.00 | 0.00 | 0.00 | 25 | 998.9 |
| 20260505010115 | 80 | 312 | 4.0 | 14.0 | 0.00 | 0.00 | 0.00 | 25 | 999.0 |